sensor_id;sensor_type;location;lat;lon;timestamp;pressure;altitude;pressure_sealevel;temperature;humidity
44313;BME280;38833;51.142;-0.974;2022-10-13T00:02:19;100229.94;;;24.24;34.05
44313;BME280;38833;51.142;-0.974;2022-10-13T00:04:52;100223.84;;;23.81;34.02
44313;BME280;38833;51.142;-0.974;2022-10-13T00:07:26;100221.47;;;23.95;34.10
44313;BME280;38833;51.142;-0.974;2022-10-13T00:09:59;100221.13;;;23.91;34.14
44313;BME280;38833;51.142;-0.974;2022-10-13T00:12:33;100217.54;;;23.91;34.13
44313;BME280;38833;51.142;-0.974;2022-10-13T00:15:08;100219.19;;;24.07;34.21
44313;BME280;38833;51.142;-0.974;2022-10-13T00:17:42;100218.11;;;23.79;34.25
44313;BME280;38833;51.142;-0.974;2022-10-13T00:20:15;100219.54;;;23.85;34.16
44313;BME280;38833;51.142;-0.974;2022-10-13T00:22:48;100218.42;;;24.05;34.16
44313;BME280;38833;51.142;-0.974;2022-10-13T00:25:21;100220.52;;;23.84;34.11
44313;BME280;38833;51.142;-0.974;2022-10-13T00:27:55;100217.55;;;23.82;34.06
44313;BME280;38833;51.142;-0.974;2022-10-13T00:30:28;100215.98;;;24.00;34.17
44313;BME280;38833;51.142;-0.974;2022-10-13T00:33:01;100217.00;;;23.92;34.25
44313;BME280;38833;51.142;-0.974;2022-10-13T00:35:40;100220.50;;;24.02;34.13
44313;BME280;38833;51.142;-0.974;2022-10-13T00:38:14;100214.69;;;24.03;34.08
44313;BME280;38833;51.142;-0.974;2022-10-13T00:40:49;100215.11;;;23.93;34.17
44313;BME280;38833;51.142;-0.974;2022-10-13T00:43:26;100215.48;;;23.94;34.17
44313;BME280;38833;51.142;-0.974;2022-10-13T00:46:00;100213.22;;;23.95;34.14
44313;BME280;38833;51.142;-0.974;2022-10-13T00:48:33;100205.01;;;23.86;34.24
44313;BME280;38833;51.142;-0.974;2022-10-13T00:51:06;100202.17;;;23.93;34.14
44313;BME280;38833;51.142;-0.974;2022-10-13T00:53:40;100202.76;;;23.99;34.07
44313;BME280;38833;51.142;-0.974;2022-10-13T00:56:16;100206.12;;;23.75;34.07
44313;BME280;38833;51.142;-0.974;2022-10-13T00:58:50;100207.00;;;23.86;34.20
44313;BME280;38833;51.142;-0.974;2022-10-13T01:01:24;100208.43;;;24.07;33.94
44313;BME280;38833;51.142;-0.974;2022-10-13T01:03:57;100208.86;;;23.54;34.00
44313;BME280;38833;51.142;-0.974;2022-10-13T01:06:31;100210.13;;;23.74;34.01
44313;BME280;38833;51.142;-0.974;2022-10-13T01:09:04;100208.47;;;23.53;33.97
44313;BME280;38833;51.142;-0.974;2022-10-13T01:11:48;100210.85;;;24.08;33.84
44313;BME280;38833;51.142;-0.974;2022-10-13T01:14:31;100209.69;;;23.64;34.07
44313;BME280;38833;51.142;-0.974;2022-10-13T01:17:14;100209.52;;;23.91;34.03
44313;BME280;38833;51.142;-0.974;2022-10-13T01:20:08;100209.15;;;23.62;34.10
44313;BME280;38833;51.142;-0.974;2022-10-13T01:22:59;100207.78;;;23.90;34.00
44313;BME280;38833;51.142;-0.974;2022-10-13T01:25:51;100198.36;;;23.70;34.22
44313;BME280;38833;51.142;-0.974;2022-10-13T01:28:41;100193.34;;;24.09;34.07
44313;BME280;38833;51.142;-0.974;2022-10-13T01:31:26;100193.45;;;23.52;34.16
44313;BME280;38833;51.142;-0.974;2022-10-13T01:34:06;100196.36;;;23.74;34.16
44313;BME280;38833;51.142;-0.974;2022-10-13T01:36:47;100191.93;;;23.72;34.19
44313;BME280;38833;51.142;-0.974;2022-10-13T01:39:32;100193.47;;;23.71;34.16
44313;BME280;38833;51.142;-0.974;2022-10-13T01:42:13;100192.04;;;23.62;34.27
44313;BME280;38833;51.142;-0.974;2022-10-13T01:44:52;100188.49;;;23.61;34.28
44313;BME280;38833;51.142;-0.974;2022-10-13T01:47:28;100187.07;;;23.90;34.23
44313;BME280;38833;51.142;-0.974;2022-10-13T01:50:03;100189.37;;;23.64;34.24
44313;BME280;38833;51.142;-0.974;2022-10-13T01:52:38;100194.14;;;23.57;34.28
44313;BME280;38833;51.142;-0.974;2022-10-13T01:55:12;100192.65;;;23.55;34.32
44313;BME280;38833;51.142;-0.974;2022-10-13T01:57:46;100192.32;;;23.59;34.26
44313;BME280;38833;51.142;-0.974;2022-10-13T02:00:20;100190.27;;;23.52;34.35
44313;BME280;38833;51.142;-0.974;2022-10-13T02:03:03;100192.47;;;23.50;34.34
44313;BME280;38833;51.142;-0.974;2022-10-13T02:05:44;100193.98;;;23.71;34.42
44313;BME280;38833;51.142;-0.974;2022-10-13T02:08:24;100192.09;;;23.55;34.23
44313;BME280;38833;51.142;-0.974;2022-10-13T02:11:07;100194.84;;;23.51;34.28
44313;BME280;38833;51.142;-0.974;2022-10-13T02:13:49;100193.91;;;23.55;34.23
44313;BME280;38833;51.142;-0.974;2022-10-13T02:16:27;100199.19;;;23.83;34.21
44313;BME280;38833;51.142;-0.974;2022-10-13T02:19:02;100198.06;;;23.30;34.23
44313;BME280;38833;51.142;-0.974;2022-10-13T02:21:37;100198.96;;;23.49;34.28
44313;BME280;38833;51.142;-0.974;2022-10-13T02:24:11;100203.19;;;23.48;34.27
44313;BME280;38833;51.142;-0.974;2022-10-13T02:26:45;100203.73;;;23.66;34.35
44313;BME280;38833;51.142;-0.974;2022-10-13T02:29:19;100201.14;;;23.47;34.25
44313;BME280;38833;51.142;-0.974;2022-10-13T02:31:52;100192.53;;;23.46;34.25
44313;BME280;38833;51.142;-0.974;2022-10-13T02:34:25;100185.74;;;23.50;34.19
44313;BME280;38833;51.142;-0.974;2022-10-13T02:36:58;100184.25;;;23.37;34.32
44313;BME280;38833;51.142;-0.974;2022-10-13T02:39:32;100188.17;;;23.48;34.19
44313;BME280;38833;51.142;-0.974;2022-10-13T02:42:05;100185.19;;;23.67;34.28
44313;BME280;38833;51.142;-0.974;2022-10-13T02:44:39;100188.10;;;23.32;34.35
44313;BME280;38833;51.142;-0.974;2022-10-13T02:47:12;100188.12;;;23.80;34.40
44313;BME280;38833;51.142;-0.974;2022-10-13T02:49:45;100184.83;;;23.64;34.28
44313;BME280;38833;51.142;-0.974;2022-10-13T02:52:19;100183.03;;;23.25;34.40
44313;BME280;38833;51.142;-0.974;2022-10-13T02:54:52;100178.30;;;23.31;34.32
44313;BME280;38833;51.142;-0.974;2022-10-13T02:57:25;100172.91;;;23.31;34.30
44313;BME280;38833;51.142;-0.974;2022-10-13T02:59:59;100169.92;;;23.27;34.33
44313;BME280;38833;51.142;-0.974;2022-10-13T03:02:32;100164.97;;;23.33;34.23
44313;BME280;38833;51.142;-0.974;2022-10-13T03:05:05;100155.57;;;23.32;34.21
44313;BME280;38833;51.142;-0.974;2022-10-13T03:07:39;100145.70;;;23.60;34.19
44313;BME280;38833;51.142;-0.974;2022-10-13T03:10:12;100140.79;;;23.28;34.24
44313;BME280;38833;51.142;-0.974;2022-10-13T03:12:46;100142.40;;;23.51;34.27
44313;BME280;38833;51.142;-0.974;2022-10-13T03:15:19;100146.85;;;23.36;34.10
44313;BME280;38833;51.142;-0.974;2022-10-13T03:17:52;100151.40;;;23.46;33.98
44313;BME280;38833;51.142;-0.974;2022-10-13T03:20:25;100147.57;;;23.21;34.29
44313;BME280;38833;51.142;-0.974;2022-10-13T03:22:59;100137.24;;;23.66;34.35
44313;BME280;38833;51.142;-0.974;2022-10-13T03:25:32;100130.22;;;23.49;34.28
44313;BME280;38833;51.142;-0.974;2022-10-13T03:28:05;100125.84;;;23.53;34.21
44313;BME280;38833;51.142;-0.974;2022-10-13T03:30:38;100124.42;;;23.75;34.20
44313;BME280;38833;51.142;-0.974;2022-10-13T03:33:12;100124.97;;;23.06;34.42
44313;BME280;38833;51.142;-0.974;2022-10-13T03:35:45;100127.05;;;23.21;34.27
44313;BME280;38833;51.142;-0.974;2022-10-13T03:38:18;100125.37;;;23.24;34.21
44313;BME280;38833;51.142;-0.974;2022-10-13T03:40:51;100125.53;;;23.48;34.23
44313;BME280;38833;51.142;-0.974;2022-10-13T03:43:24;100122.65;;;23.15;34.30
44313;BME280;38833;51.142;-0.974;2022-10-13T03:46:00;100118.67;;;23.17;34.24
44313;BME280;38833;51.142;-0.974;2022-10-13T03:48:34;100119.45;;;23.22;34.17
44313;BME280;38833;51.142;-0.974;2022-10-13T03:51:10;100122.61;;;23.44;34.22
44313;BME280;38833;51.142;-0.974;2022-10-13T03:53:43;100124.73;;;23.48;34.17
44313;BME280;38833;51.142;-0.974;2022-10-13T03:56:19;100119.73;;;23.47;34.14
44313;BME280;38833;51.142;-0.974;2022-10-13T03:58:54;100114.91;;;23.36;34.27
44313;BME280;38833;51.142;-0.974;2022-10-13T04:04:19;100110.69;;;23.00;34.12
44313;BME280;38833;51.142;-0.974;2022-10-13T04:06:52;100103.87;;;23.22;33.80
44313;BME280;38833;51.142;-0.974;2022-10-13T04:09:26;100098.57;;;23.10;33.65
44313;BME280;38833;51.142;-0.974;2022-10-13T04:11:59;100102.05;;;23.41;33.25
44313;BME280;38833;51.142;-0.974;2022-10-13T04:14:32;100099.14;;;23.41;33.22
44313;BME280;38833;51.142;-0.974;2022-10-13T04:17:06;100095.50;;;23.60;33.23
44313;BME280;38833;51.142;-0.974;2022-10-13T04:19:39;100092.21;;;23.47;33.09
44313;BME280;38833;51.142;-0.974;2022-10-13T04:22:12;100093.28;;;23.48;33.09
44313;BME280;38833;51.142;-0.974;2022-10-13T04:24:45;100092.97;;;23.59;33.19
44313;BME280;38833;51.142;-0.974;2022-10-13T04:27:18;100095.18;;;23.87;33.10
44313;BME280;38833;51.142;-0.974;2022-10-13T04:29:52;100096.95;;;23.64;33.10
44313;BME280;38833;51.142;-0.974;2022-10-13T04:32:25;100093.22;;;23.40;33.11
44313;BME280;38833;51.142;-0.974;2022-10-13T04:34:59;100088.50;;;23.56;33.19
44313;BME280;38833;51.142;-0.974;2022-10-13T04:37:32;100083.04;;;23.39;33.18
44313;BME280;38833;51.142;-0.974;2022-10-13T04:40:06;100076.63;;;24.16;32.86
44313;BME280;38833;51.142;-0.974;2022-10-13T04:42:40;100070.64;;;23.72;32.90
44313;BME280;38833;51.142;-0.974;2022-10-13T04:45:13;100070.13;;;23.79;32.84
44313;BME280;38833;51.142;-0.974;2022-10-13T04:47:46;100066.32;;;23.79;32.91
44313;BME280;38833;51.142;-0.974;2022-10-13T04:50:19;100065.23;;;23.79;32.94
44313;BME280;38833;51.142;-0.974;2022-10-13T04:52:53;100065.94;;;23.70;33.00
44313;BME280;38833;51.142;-0.974;2022-10-13T04:55:26;100068.15;;;23.82;32.96
44313;BME280;38833;51.142;-0.974;2022-10-13T04:57:59;100065.45;;;23.77;32.92
44313;BME280;38833;51.142;-0.974;2022-10-13T05:00:33;100065.90;;;23.86;32.88
44313;BME280;38833;51.142;-0.974;2022-10-13T05:03:06;100062.25;;;23.91;32.81
44313;BME280;38833;51.142;-0.974;2022-10-13T05:05:39;100063.47;;;23.95;33.05
44313;BME280;38833;51.142;-0.974;2022-10-13T05:08:12;100061.84;;;24.08;33.25
44313;BME280;38833;51.142;-0.974;2022-10-13T05:10:53;100059.84;;;24.06;33.26
44313;BME280;38833;51.142;-0.974;2022-10-13T05:13:27;100058.94;;;23.79;33.34
44313;BME280;38833;51.142;-0.974;2022-10-13T05:16:05;100064.51;;;23.92;33.59
44313;BME280;38833;51.142;-0.974;2022-10-13T05:18:39;100069.18;;;23.70;33.62
44313;BME280;38833;51.142;-0.974;2022-10-13T05:21:15;100071.31;;;23.66;33.76
44313;BME280;38833;51.142;-0.974;2022-10-13T05:23:49;100072.40;;;23.70;33.80
44313;BME280;38833;51.142;-0.974;2022-10-13T05:26:24;100073.74;;;23.65;33.98
44313;BME280;38833;51.142;-0.974;2022-10-13T05:28:59;100078.57;;;23.60;34.13
44313;BME280;38833;51.142;-0.974;2022-10-13T05:31:34;100083.80;;;23.90;34.05
44313;BME280;38833;51.142;-0.974;2022-10-13T05:34:08;100081.77;;;23.98;34.01
44313;BME280;38833;51.142;-0.974;2022-10-13T05:36:41;100078.28;;;23.52;34.02
44313;BME280;38833;51.142;-0.974;2022-10-13T05:39:14;100074.58;;;24.00;34.04
44313;BME280;38833;51.142;-0.974;2022-10-13T05:41:47;100078.66;;;23.81;34.08
44313;BME280;38833;51.142;-0.974;2022-10-13T05:44:20;100078.81;;;24.07;34.08
44313;BME280;38833;51.142;-0.974;2022-10-13T05:46:54;100074.19;;;23.75;33.93
44313;BME280;38833;51.142;-0.974;2022-10-13T05:49:28;100078.36;;;24.14;34.05
44313;BME280;38833;51.142;-0.974;2022-10-13T05:52:03;100081.65;;;23.84;33.90
44313;BME280;38833;51.142;-0.974;2022-10-13T05:54:41;100083.82;;;23.87;33.88
44313;BME280;38833;51.142;-0.974;2022-10-13T05:57:18;100083.16;;;24.24;33.71
44313;BME280;38833;51.142;-0.974;2022-10-13T05:59:57;100089.89;;;23.97;33.81
44313;BME280;38833;51.142;-0.974;2022-10-13T06:02:35;100091.54;;;24.41;33.86
44313;BME280;38833;51.142;-0.974;2022-10-13T06:05:14;100089.69;;;24.28;33.77
44313;BME280;38833;51.142;-0.974;2022-10-13T06:07:48;100088.57;;;24.36;33.68
44313;BME280;38833;51.142;-0.974;2022-10-13T06:10:22;100088.66;;;24.10;33.76
44313;BME280;38833;51.142;-0.974;2022-10-13T06:12:55;100091.75;;;24.05;33.83
44313;BME280;38833;51.142;-0.974;2022-10-13T06:15:28;100092.93;;;24.09;33.80
44313;BME280;38833;51.142;-0.974;2022-10-13T06:18:05;100092.69;;;24.15;33.73
44313;BME280;38833;51.142;-0.974;2022-10-13T06:20:38;100090.55;;;24.39;33.74
44313;BME280;38833;51.142;-0.974;2022-10-13T06:23:12;100087.52;;;24.17;33.76
44313;BME280;38833;51.142;-0.974;2022-10-13T06:25:47;100084.20;;;24.21;33.69
44313;BME280;38833;51.142;-0.974;2022-10-13T06:28:20;100079.46;;;24.44;33.70
44313;BME280;38833;51.142;-0.974;2022-10-13T06:30:53;100077.69;;;24.67;33.43
44313;BME280;38833;51.142;-0.974;2022-10-13T06:33:27;100075.06;;;24.34;33.59
44313;BME280;38833;51.142;-0.974;2022-10-13T06:36:01;100074.12;;;24.48;33.40
44313;BME280;38833;51.142;-0.974;2022-10-13T06:38:34;100067.76;;;24.54;33.33
44313;BME280;38833;51.142;-0.974;2022-10-13T06:41:07;100059.69;;;24.45;33.44
44313;BME280;38833;51.142;-0.974;2022-10-13T06:43:40;100054.12;;;24.55;33.30
44313;BME280;38833;51.142;-0.974;2022-10-13T06:46:14;100045.45;;;24.62;33.21
44313;BME280;38833;51.142;-0.974;2022-10-13T06:48:48;100040.33;;;24.25;33.34
44313;BME280;38833;51.142;-0.974;2022-10-13T06:51:21;100041.84;;;24.52;33.33
44313;BME280;38833;51.142;-0.974;2022-10-13T06:53:55;100045.78;;;24.46;33.41
44313;BME280;38833;51.142;-0.974;2022-10-13T06:56:28;100046.85;;;24.52;33.35
44313;BME280;38833;51.142;-0.974;2022-10-13T06:59:02;100043.82;;;24.52;33.30
44313;BME280;38833;51.142;-0.974;2022-10-13T07:01:35;100040.87;;;24.53;33.32
44313;BME280;38833;51.142;-0.974;2022-10-13T07:04:08;100034.24;;;24.56;33.29
44313;BME280;38833;51.142;-0.974;2022-10-13T07:06:42;100032.80;;;24.53;33.29
44313;BME280;38833;51.142;-0.974;2022-10-13T07:09:15;100033.75;;;24.60;33.21
44313;BME280;38833;51.142;-0.974;2022-10-13T07:11:48;100034.52;;;24.49;33.33
44313;BME280;38833;51.142;-0.974;2022-10-13T07:14:21;100038.75;;;24.63;33.16
44313;BME280;38833;51.142;-0.974;2022-10-13T07:16:55;100042.32;;;24.55;33.23
44313;BME280;38833;51.142;-0.974;2022-10-13T07:19:28;100041.33;;;24.54;33.22
44313;BME280;38833;51.142;-0.974;2022-10-13T07:22:01;100037.61;;;24.58;33.15
44313;BME280;38833;51.142;-0.974;2022-10-13T07:24:34;100039.32;;;24.27;33.18
44313;BME280;38833;51.142;-0.974;2022-10-13T07:27:08;100044.18;;;24.58;33.11
44313;BME280;38833;51.142;-0.974;2022-10-13T07:29:41;100045.71;;;24.68;32.95
44313;BME280;38833;51.142;-0.974;2022-10-13T07:32:14;100043.52;;;24.64;33.01
44313;BME280;38833;51.142;-0.974;2022-10-13T07:34:51;100041.35;;;24.52;33.16
44313;BME280;38833;51.142;-0.974;2022-10-13T07:37:24;100039.14;;;24.57;33.08
44313;BME280;38833;51.142;-0.974;2022-10-13T07:39:57;100038.21;;;24.51;33.18
44313;BME280;38833;51.142;-0.974;2022-10-13T07:42:31;100040.02;;;24.49;33.18
44313;BME280;38833;51.142;-0.974;2022-10-13T07:45:06;100038.36;;;25.04;32.44
44313;BME280;38833;51.142;-0.974;2022-10-13T07:47:39;100037.85;;;25.12;32.62
44313;BME280;38833;51.142;-0.974;2022-10-13T07:50:12;100037.49;;;25.39;32.32
44313;BME280;38833;51.142;-0.974;2022-10-13T07:52:45;100039.43;;;25.41;32.29
44313;BME280;38833;51.142;-0.974;2022-10-13T07:55:19;100044.75;;;25.29;32.42
44313;BME280;38833;51.142;-0.974;2022-10-13T07:57:52;100043.56;;;25.31;32.43
44313;BME280;38833;51.142;-0.974;2022-10-13T08:00:25;100039.08;;;25.14;32.57
44313;BME280;38833;51.142;-0.974;2022-10-13T08:02:58;100037.65;;;25.28;32.48
44313;BME280;38833;51.142;-0.974;2022-10-13T08:05:32;100041.12;;;24.97;32.51
44313;BME280;38833;51.142;-0.974;2022-10-13T08:08:05;100049.33;;;25.14;32.37
44313;BME280;38833;51.142;-0.974;2022-10-13T08:10:39;100052.49;;;25.56;32.22
44313;BME280;38833;51.142;-0.974;2022-10-13T08:13:12;100053.54;;;25.01;32.35
44313;BME280;38833;51.142;-0.974;2022-10-13T08:15:46;100056.83;;;24.69;32.28
44313;BME280;38833;51.142;-0.974;2022-10-13T08:18:19;100057.16;;;24.36;32.41
44313;BME280;38833;51.142;-0.974;2022-10-13T08:20:52;100058.18;;;24.09;32.66
44313;BME280;38833;51.142;-0.974;2022-10-13T08:23:25;100059.59;;;24.83;32.46
44313;BME280;38833;51.142;-0.974;2022-10-13T08:25:58;100055.68;;;24.82;32.42
44313;BME280;38833;51.142;-0.974;2022-10-13T08:28:32;100053.06;;;24.69;32.51
44313;BME280;38833;51.142;-0.974;2022-10-13T08:31:05;100047.23;;;24.85;32.46
44313;BME280;38833;51.142;-0.974;2022-10-13T08:33:38;100049.02;;;25.02;32.58
44313;BME280;38833;51.142;-0.974;2022-10-13T08:36:11;100048.09;;;25.16;32.39
44313;BME280;38833;51.142;-0.974;2022-10-13T08:38:45;100047.25;;;25.39;32.34
44313;BME280;38833;51.142;-0.974;2022-10-13T08:41:20;100044.82;;;25.12;32.49
44313;BME280;38833;51.142;-0.974;2022-10-13T08:43:57;100043.59;;;24.88;32.84
44313;BME280;38833;51.142;-0.974;2022-10-13T08:46:40;100042.21;;;24.79;33.13
44313;BME280;38833;51.142;-0.974;2022-10-13T08:49:17;100038.55;;;25.19;32.80
44313;BME280;38833;51.142;-0.974;2022-10-13T08:51:50;100031.86;;;25.07;32.82
44313;BME280;38833;51.142;-0.974;2022-10-13T08:54:25;100027.05;;;24.74;33.20
44313;BME280;38833;51.142;-0.974;2022-10-13T08:56:58;100027.50;;;24.92;33.04
44313;BME280;38833;51.142;-0.974;2022-10-13T08:59:32;100029.42;;;24.88;33.15
44313;BME280;38833;51.142;-0.974;2022-10-13T09:02:11;100037.53;;;25.00;33.18
44313;BME280;38833;51.142;-0.974;2022-10-13T09:04:46;100036.57;;;24.93;33.44
44313;BME280;38833;51.142;-0.974;2022-10-13T09:07:24;100035.76;;;24.77;33.36
44313;BME280;38833;51.142;-0.974;2022-10-13T09:09:59;100039.49;;;25.07;33.40
44313;BME280;38833;51.142;-0.974;2022-10-13T09:12:32;100039.59;;;25.22;33.23
44313;BME280;38833;51.142;-0.974;2022-10-13T09:15:07;100037.79;;;24.85;33.41
44313;BME280;38833;51.142;-0.974;2022-10-13T09:17:41;100041.94;;;25.06;33.23
44313;BME280;38833;51.142;-0.974;2022-10-13T09:20:19;100042.76;;;25.02;33.39
44313;BME280;38833;51.142;-0.974;2022-10-13T09:23:01;100040.18;;;25.38;33.32
44313;BME280;38833;51.142;-0.974;2022-10-13T09:25:39;100040.00;;;25.28;33.18
44313;BME280;38833;51.142;-0.974;2022-10-13T09:28:17;100043.51;;;25.56;33.24
44313;BME280;38833;51.142;-0.974;2022-10-13T09:31:01;100044.32;;;25.36;33.23
44313;BME280;38833;51.142;-0.974;2022-10-13T09:33:36;100046.95;;;25.07;33.48
44313;BME280;38833;51.142;-0.974;2022-10-13T09:36:12;100049.06;;;25.32;33.48
44313;BME280;38833;51.142;-0.974;2022-10-13T09:39:05;100049.79;;;25.34;33.77
44313;BME280;38833;51.142;-0.974;2022-10-13T09:41:39;100053.17;;;25.32;33.52
44313;BME280;38833;51.142;-0.974;2022-10-13T09:44:15;100056.18;;;25.43;33.35
44313;BME280;38833;51.142;-0.974;2022-10-13T09:46:51;100051.84;;;25.72;33.30
44313;BME280;38833;51.142;-0.974;2022-10-13T09:49:31;100052.65;;;25.78;33.24
44313;BME280;38833;51.142;-0.974;2022-10-13T09:52:13;100054.83;;;25.66;32.97
44313;BME280;38833;51.142;-0.974;2022-10-13T09:54:49;100053.81;;;25.22;33.30
44313;BME280;38833;51.142;-0.974;2022-10-13T09:57:30;100051.74;;;25.33;33.57
44313;BME280;38833;51.142;-0.974;2022-10-13T10:00:11;100046.07;;;25.41;33.53
44313;BME280;38833;51.142;-0.974;2022-10-13T10:02:50;100044.11;;;25.43;33.54
44313;BME280;38833;51.142;-0.974;2022-10-13T10:05:27;100045.92;;;25.53;33.59
44313;BME280;38833;51.142;-0.974;2022-10-13T10:08:12;100047.87;;;25.35;33.53
44313;BME280;38833;51.142;-0.974;2022-10-13T10:10:46;100053.72;;;25.59;33.36
44313;BME280;38833;51.142;-0.974;2022-10-13T10:13:19;100061.62;;;25.77;33.24
44313;BME280;38833;51.142;-0.974;2022-10-13T10:15:55;100067.04;;;25.34;33.43
44313;BME280;38833;51.142;-0.974;2022-10-13T10:18:35;100070.67;;;25.35;33.39
44313;BME280;38833;51.142;-0.974;2022-10-13T10:21:17;100072.39;;;25.61;33.49
44313;BME280;38833;51.142;-0.974;2022-10-13T10:24:00;100073.55;;;25.41;33.40
44313;BME280;38833;51.142;-0.974;2022-10-13T10:26:46;100079.09;;;25.45;33.32
44313;BME280;38833;51.142;-0.974;2022-10-13T10:29:30;100080.02;;;25.23;33.15
44313;BME280;38833;51.142;-0.974;2022-10-13T10:32:19;100076.32;;;25.27;33.28
44313;BME280;38833;51.142;-0.974;2022-10-13T10:34:57;100072.10;;;25.35;32.96
44313;BME280;38833;51.142;-0.974;2022-10-13T10:37:43;100066.89;;;25.54;32.86
44313;BME280;38833;51.142;-0.974;2022-10-13T10:40:30;100065.19;;;25.49;32.75
44313;BME280;38833;51.142;-0.974;2022-10-13T10:43:29;100061.16;;;25.65;32.56
44313;BME280;38833;51.142;-0.974;2022-10-13T10:46:12;100060.21;;;25.47;33.03
44313;BME280;38833;51.142;-0.974;2022-10-13T10:48:47;100059.04;;;25.58;33.00
44313;BME280;38833;51.142;-0.974;2022-10-13T10:51:24;100059.16;;;25.44;32.76
44313;BME280;38833;51.142;-0.974;2022-10-13T10:54:11;100055.46;;;25.37;32.84
44313;BME280;38833;51.142;-0.974;2022-10-13T10:56:52;100056.67;;;25.90;32.54
44313;BME280;38833;51.142;-0.974;2022-10-13T10:59:39;100060.59;;;25.56;32.59
44313;BME280;38833;51.142;-0.974;2022-10-13T11:02:34;100058.25;;;25.61;32.60
44313;BME280;38833;51.142;-0.974;2022-10-13T11:05:10;100057.46;;;25.51;32.70
44313;BME280;38833;51.142;-0.974;2022-10-13T11:07:59;100050.44;;;25.47;33.29
44313;BME280;38833;51.142;-0.974;2022-10-13T11:10:32;100046.49;;;25.45;33.19
44313;BME280;38833;51.142;-0.974;2022-10-13T11:13:16;100049.03;;;25.43;33.42
44313;BME280;38833;51.142;-0.974;2022-10-13T11:15:50;100049.03;;;25.77;33.08
44313;BME280;38833;51.142;-0.974;2022-10-13T11:18:56;100044.82;;;25.71;33.22
44313;BME280;38833;51.142;-0.974;2022-10-13T11:22:10;100041.38;;;25.90;32.95
44313;BME280;38833;51.142;-0.974;2022-10-13T11:24:56;100039.03;;;25.44;33.22
44313;BME280;38833;51.142;-0.974;2022-10-13T11:27:40;100038.26;;;25.61;33.09
44313;BME280;38833;51.142;-0.974;2022-10-13T11:30:47;100042.30;;;25.62;33.10
44313;BME280;38833;51.142;-0.974;2022-10-13T11:33:56;100045.82;;;25.58;33.00
44313;BME280;38833;51.142;-0.974;2022-10-13T11:37:02;100046.18;;;25.69;33.02
44313;BME280;38833;51.142;-0.974;2022-10-13T11:40:02;100043.67;;;25.82;33.01
44313;BME280;38833;51.142;-0.974;2022-10-13T11:43:25;100040.97;;;25.54;33.18
44313;BME280;38833;51.142;-0.974;2022-10-13T11:46:12;100036.56;;;25.60;33.08
44313;BME280;38833;51.142;-0.974;2022-10-13T11:49:27;100033.49;;;25.52;33.09
44313;BME280;38833;51.142;-0.974;2022-10-13T11:52:17;100028.44;;;25.83;33.12
44313;BME280;38833;51.142;-0.974;2022-10-13T11:54:56;100023.78;;;25.84;33.05
44313;BME280;38833;51.142;-0.974;2022-10-13T11:57:33;100018.93;;;25.85;33.11
44313;BME280;38833;51.142;-0.974;2022-10-13T12:00:13;100017.22;;;25.51;33.43
44313;BME280;38833;51.142;-0.974;2022-10-13T12:02:47;100020.95;;;25.51;33.55
44313;BME280;38833;51.142;-0.974;2022-10-13T12:05:24;100018.44;;;25.77;31.92
44313;BME280;38833;51.142;-0.974;2022-10-13T12:08:01;100013.84;;;26.19;30.72
44313;BME280;38833;51.142;-0.974;2022-10-13T12:10:36;100011.78;;;25.80;31.02
44313;BME280;38833;51.142;-0.974;2022-10-13T12:13:19;100011.41;;;25.70;31.12
44313;BME280;38833;51.142;-0.974;2022-10-13T12:15:59;100008.52;;;25.80;31.43
44313;BME280;38833;51.142;-0.974;2022-10-13T12:18:34;100003.80;;;25.58;31.23
44313;BME280;38833;51.142;-0.974;2022-10-13T12:21:10;100001.02;;;25.57;31.51
44313;BME280;38833;51.142;-0.974;2022-10-13T12:23:45;99998.77;;;25.65;31.74
44313;BME280;38833;51.142;-0.974;2022-10-13T12:26:21;100001.70;;;25.23;32.29
44313;BME280;38833;51.142;-0.974;2022-10-13T12:28:56;100001.85;;;25.16;31.72
44313;BME280;38833;51.142;-0.974;2022-10-13T12:31:38;100007.42;;;25.78;31.56
44313;BME280;38833;51.142;-0.974;2022-10-13T12:34:19;100004.41;;;25.24;32.27
44313;BME280;38833;51.142;-0.974;2022-10-13T12:36:55;99998.70;;;25.14;32.47
44313;BME280;38833;51.142;-0.974;2022-10-13T12:39:32;99998.35;;;25.34;32.79
44313;BME280;38833;51.142;-0.974;2022-10-13T12:42:09;100000.25;;;25.34;33.03
44313;BME280;38833;51.142;-0.974;2022-10-13T12:44:45;100002.74;;;25.28;32.85
44313;BME280;38833;51.142;-0.974;2022-10-13T12:47:38;99997.35;;;25.53;32.74
44313;BME280;38833;51.142;-0.974;2022-10-13T12:50:43;99991.90;;;25.54;32.57
44313;BME280;38833;51.142;-0.974;2022-10-13T12:53:22;99989.75;;;25.64;32.47
44313;BME280;38833;51.142;-0.974;2022-10-13T12:55:59;99984.09;;;25.71;32.49
44313;BME280;38833;51.142;-0.974;2022-10-13T12:58:34;99981.48;;;25.42;32.51
44313;BME280;38833;51.142;-0.974;2022-10-13T13:01:24;99985.08;;;25.40;32.48
44313;BME280;38833;51.142;-0.974;2022-10-13T13:04:00;99988.34;;;25.60;32.30
44313;BME280;38833;51.142;-0.974;2022-10-13T13:06:36;99990.30;;;25.55;32.30
44313;BME280;38833;51.142;-0.974;2022-10-13T13:09:21;99989.17;;;25.50;32.43
44313;BME280;38833;51.142;-0.974;2022-10-13T13:12:27;99984.75;;;25.50;32.35
44313;BME280;38833;51.142;-0.974;2022-10-13T13:15:19;99980.33;;;26.00;32.10
44313;BME280;38833;51.142;-0.974;2022-10-13T13:17:54;99981.62;;;26.66;31.29
44313;BME280;38833;51.142;-0.974;2022-10-13T13:20:54;99970.02;;;26.65;31.24
44313;BME280;38833;51.142;-0.974;2022-10-13T13:23:27;99967.08;;;27.13;31.19
44313;BME280;38833;51.142;-0.974;2022-10-13T13:26:04;99962.21;;;27.49;30.58
44313;BME280;38833;51.142;-0.974;2022-10-13T13:28:41;99963.42;;;27.53;30.67
44313;BME280;38833;51.142;-0.974;2022-10-13T13:31:17;99963.41;;;27.75;30.26
44313;BME280;38833;51.142;-0.974;2022-10-13T13:33:51;99961.20;;;27.93;30.33
44313;BME280;38833;51.142;-0.974;2022-10-13T13:36:25;99958.49;;;28.19;30.12